sensor_id;sensor_type;location;lat;lon;timestamp;pressure;altitude;pressure_sealevel;temperature;humidity
20077;BME280;12348;42.710;23.378;2023-04-01T00:03:37;94266.88;;;8.52;100.00
20077;BME280;12348;42.710;23.378;2023-04-01T00:06:03;94270.81;;;8.55;100.00
20077;BME280;12348;42.710;23.378;2023-04-01T00:08:30;94276.41;;;8.72;100.00
20077;BME280;12348;42.710;23.378;2023-04-01T00:10:58;94277.00;;;8.69;100.00
20077;BME280;12348;42.710;23.378;2023-04-01T00:13:26;94280.78;;;8.68;100.00
20077;BME280;12348;42.710;23.378;2023-04-01T00:15:53;94280.19;;;8.71;100.00
20077;BME280;12348;42.710;23.378;2023-04-01T00:18:20;94274.91;;;8.80;100.00
20077;BME280;12348;42.710;23.378;2023-04-01T00:20:48;94269.63;;;8.88;100.00
20077;BME280;12348;42.710;23.378;2023-04-01T00:23:16;94274.91;;;8.93;100.00
20077;BME280;12348;42.710;23.378;2023-04-01T00:25:44;94268.22;;;9.05;100.00
20077;BME280;12348;42.710;23.378;2023-04-01T00:28:14;94265.81;;;9.03;100.00
20077;BME280;12348;42.710;23.378;2023-04-01T00:30:41;94271.75;;;8.78;100.00
20077;BME280;12348;42.710;23.378;2023-04-01T00:33:08;94274.22;;;8.60;100.00
20077;BME280;12348;42.710;23.378;2023-04-01T00:35:35;94267.16;;;8.64;100.00
20077;BME280;12348;42.710;23.378;2023-04-01T00:38:02;94264.56;;;8.73;100.00
20077;BME280;12348;42.710;23.378;2023-04-01T00:40:30;94272.53;;;8.64;100.00
20077;BME280;12348;42.710;23.378;2023-04-01T00:42:57;94263.47;;;8.46;100.00
20077;BME280;12348;42.710;23.378;2023-04-01T00:45:34;94244.38;;;8.34;100.00
20077;BME280;12348;42.710;23.378;2023-04-01T00:48:04;94244.06;;;8.22;100.00
20077;BME280;12348;42.710;23.378;2023-04-01T00:50:33;94237.38;;;8.19;100.00
20077;BME280;12348;42.710;23.378;2023-04-01T00:53:02;94235.09;;;8.13;100.00
20077;BME280;12348;42.710;23.378;2023-04-01T00:55:32;94227.13;;;8.40;100.00
20077;BME280;12348;42.710;23.378;2023-04-01T00:58:03;94225.41;;;8.72;100.00
20077;BME280;12348;42.710;23.378;2023-04-01T01:00:33;94224.81;;;8.61;100.00
20077;BME280;12348;42.710;23.378;2023-04-01T01:03:00;94210.50;;;8.66;100.00
20077;BME280;12348;42.710;23.378;2023-04-01T01:05:38;94209.69;;;8.65;100.00
20077;BME280;12348;42.710;23.378;2023-04-01T01:08:17;94200.19;;;8.59;100.00
20077;BME280;12348;42.710;23.378;2023-04-01T01:10:50;94203.34;;;8.61;100.00
20077;BME280;12348;42.710;23.378;2023-04-01T01:13:22;94200.25;;;8.68;100.00
20077;BME280;12348;42.710;23.378;2023-04-01T01:15:56;94198.66;;;8.81;100.00
20077;BME280;12348;42.710;23.378;2023-04-01T01:18:28;94199.66;;;9.21;100.00
20077;BME280;12348;42.710;23.378;2023-04-01T01:24:26;94198.47;;;9.13;100.00
20077;BME280;12348;42.710;23.378;2023-04-01T01:27:02;94189.91;;;8.89;100.00
20077;BME280;12348;42.710;23.378;2023-04-01T01:35:38;94189.47;;;8.95;100.00
20077;BME280;12348;42.710;23.378;2023-04-01T01:38:10;94185.97;;;9.09;100.00
20077;BME280;12348;42.710;23.378;2023-04-01T01:40:39;94177.25;;;9.26;100.00
20077;BME280;12348;42.710;23.378;2023-04-01T01:43:10;94176.81;;;9.10;100.00
20077;BME280;12348;42.710;23.378;2023-04-01T01:45:42;94178.00;;;9.04;100.00
20077;BME280;12348;42.710;23.378;2023-04-01T01:48:11;94176.16;;;8.90;100.00
20077;BME280;12348;42.710;23.378;2023-04-01T01:50:41;94160.38;;;8.89;100.00
20077;BME280;12348;42.710;23.378;2023-04-01T01:53:10;94167.69;;;8.97;100.00
20077;BME280;12348;42.710;23.378;2023-04-01T01:55:39;94167.53;;;9.16;100.00
20077;BME280;12348;42.710;23.378;2023-04-01T01:58:11;94160.81;;;9.05;100.00
20077;BME280;12348;42.710;23.378;2023-04-01T02:00:40;94157.38;;;8.90;100.00
20077;BME280;12348;42.710;23.378;2023-04-01T02:03:08;94153.41;;;8.88;100.00
20077;BME280;12348;42.710;23.378;2023-04-01T02:05:35;94162.34;;;8.83;100.00
20077;BME280;12348;42.710;23.378;2023-04-01T02:08:07;94157.63;;;9.03;100.00
20077;BME280;12348;42.710;23.378;2023-04-01T02:10:40;94164.72;;;9.21;100.00
20077;BME280;12348;42.710;23.378;2023-04-01T02:13:13;94157.47;;;9.21;100.00
20077;BME280;12348;42.710;23.378;2023-04-01T02:15:45;94149.84;;;9.15;100.00
20077;BME280;12348;42.710;23.378;2023-04-01T02:18:15;94138.28;;;9.14;100.00
20077;BME280;12348;42.710;23.378;2023-04-01T02:20:44;94140.41;;;9.04;100.00
20077;BME280;12348;42.710;23.378;2023-04-01T02:23:12;94133.53;;;8.89;100.00
20077;BME280;12348;42.710;23.378;2023-04-01T02:25:41;94130.53;;;8.90;100.00
20077;BME280;12348;42.710;23.378;2023-04-01T02:28:10;94134.97;;;8.95;100.00
20077;BME280;12348;42.710;23.378;2023-04-01T02:30:41;94141.94;;;8.96;100.00
20077;BME280;12348;42.710;23.378;2023-04-01T02:33:09;94131.44;;;8.86;100.00
20077;BME280;12348;42.710;23.378;2023-04-01T02:35:36;94136.25;;;8.61;100.00
20077;BME280;12348;42.710;23.378;2023-04-01T02:38:04;94141.75;;;8.56;100.00
20077;BME280;12348;42.710;23.378;2023-04-01T02:40:43;94136.88;;;8.58;100.00
20077;BME280;12348;42.710;23.378;2023-04-01T02:43:10;94141.75;;;8.56;100.00
20077;BME280;12348;42.710;23.378;2023-04-01T02:45:37;94155.97;;;8.57;100.00
20077;BME280;12348;42.710;23.378;2023-04-01T02:48:04;94163.09;;;8.47;100.00
20077;BME280;12348;42.710;23.378;2023-04-01T02:50:31;94163.09;;;8.47;100.00
20077;BME280;12348;42.710;23.378;2023-04-01T02:52:58;94169.84;;;8.17;100.00
20077;BME280;12348;42.710;23.378;2023-04-01T02:55:25;94170.84;;;8.21;100.00
20077;BME280;12348;42.710;23.378;2023-04-01T02:57:54;94178.69;;;8.04;100.00
20077;BME280;12348;42.710;23.378;2023-04-01T03:00:20;94177.19;;;7.98;100.00
20077;BME280;12348;42.710;23.378;2023-04-01T03:02:47;94180.88;;;7.88;100.00
20077;BME280;12348;42.710;23.378;2023-04-01T03:05:14;94172.41;;;7.81;100.00
20077;BME280;12348;42.710;23.378;2023-04-01T03:07:41;94167.94;;;7.90;100.00
20077;BME280;12348;42.710;23.378;2023-04-01T03:10:08;94186.41;;;7.78;100.00
20077;BME280;12348;42.710;23.378;2023-04-01T03:12:37;94181.16;;;7.87;100.00
20077;BME280;12348;42.710;23.378;2023-04-01T03:15:06;94170.31;;;7.78;100.00
20077;BME280;12348;42.710;23.378;2023-04-01T03:17:33;94181.94;;;7.73;100.00
20077;BME280;12348;42.710;23.378;2023-04-01T03:19:59;94165.91;;;7.55;100.00
20077;BME280;12348;42.710;23.378;2023-04-01T03:22:26;94169.38;;;7.55;100.00
20077;BME280;12348;42.710;23.378;2023-04-01T03:24:53;94190.22;;;7.58;100.00
20077;BME280;12348;42.710;23.378;2023-04-01T03:27:19;94197.38;;;7.63;100.00
20077;BME280;12348;42.710;23.378;2023-04-01T03:29:49;94177.31;;;7.60;100.00
20077;BME280;12348;42.710;23.378;2023-04-01T03:32:17;94181.31;;;7.63;100.00
20077;BME280;12348;42.710;23.378;2023-04-01T03:34:44;94186.88;;;7.80;100.00
20077;BME280;12348;42.710;23.378;2023-04-01T03:37:10;94195.66;;;7.86;100.00
20077;BME280;12348;42.710;23.378;2023-04-01T03:39:38;94187.28;;;7.87;100.00
20077;BME280;12348;42.710;23.378;2023-04-01T03:42:04;94193.06;;;7.81;100.00
20077;BME280;12348;42.710;23.378;2023-04-01T03:44:32;94175.72;;;7.92;100.00
20077;BME280;12348;42.710;23.378;2023-04-01T03:46:59;94171.66;;;8.49;100.00
20077;BME280;12348;42.710;23.378;2023-04-01T03:49:28;94168.78;;;8.18;100.00
20077;BME280;12348;42.710;23.378;2023-04-01T03:51:57;94156.94;;;8.06;100.00
20077;BME280;12348;42.710;23.378;2023-04-01T03:54:24;94132.41;;;8.12;100.00
20077;BME280;12348;42.710;23.378;2023-04-01T03:56:51;94123.19;;;8.05;100.00
20077;BME280;12348;42.710;23.378;2023-04-01T03:59:17;94114.84;;;7.92;100.00
20077;BME280;12348;42.710;23.378;2023-04-01T04:01:46;94108.50;;;7.74;100.00
20077;BME280;12348;42.710;23.378;2023-04-01T04:04:13;94094.31;;;7.74;100.00
20077;BME280;12348;42.710;23.378;2023-04-01T04:06:41;94087.34;;;7.87;100.00
20077;BME280;12348;42.710;23.378;2023-04-01T04:09:08;94074.09;;;8.45;100.00
20077;BME280;12348;42.710;23.378;2023-04-01T04:11:35;94073.59;;;8.43;100.00
20077;BME280;12348;42.710;23.378;2023-04-01T04:14:02;94075.41;;;8.48;100.00
20077;BME280;12348;42.710;23.378;2023-04-01T04:16:29;94082.88;;;8.37;100.00
20077;BME280;12348;42.710;23.378;2023-04-01T04:18:56;94060.72;;;8.18;100.00
20077;BME280;12348;42.710;23.378;2023-04-01T04:21:22;94072.84;;;8.01;100.00
20077;BME280;12348;42.710;23.378;2023-04-01T04:23:51;94060.66;;;7.95;100.00
20077;BME280;12348;42.710;23.378;2023-04-01T04:26:17;94060.53;;;8.00;100.00
20077;BME280;12348;42.710;23.378;2023-04-01T04:28:44;94047.59;;;8.16;100.00
20077;BME280;12348;42.710;23.378;2023-04-01T04:31:11;94038.72;;;8.43;100.00
20077;BME280;12348;42.710;23.378;2023-04-01T04:33:38;94029.41;;;8.27;100.00
20077;BME280;12348;42.710;23.378;2023-04-01T04:36:06;94017.19;;;8.35;100.00
20077;BME280;12348;42.710;23.378;2023-04-01T04:38:33;94027.91;;;8.35;100.00
20077;BME280;12348;42.710;23.378;2023-04-01T04:41:01;94018.19;;;8.25;100.00
20077;BME280;12348;42.710;23.378;2023-04-01T04:43:27;94016.66;;;8.33;100.00
20077;BME280;12348;42.710;23.378;2023-04-01T04:45:54;94016.63;;;8.60;100.00
20077;BME280;12348;42.710;23.378;2023-04-01T04:48:21;94020.59;;;8.63;100.00
20077;BME280;12348;42.710;23.378;2023-04-01T04:50:49;94032.28;;;8.44;100.00
20077;BME280;12348;42.710;23.378;2023-04-01T04:53:17;94018.13;;;8.16;100.00
20077;BME280;12348;42.710;23.378;2023-04-01T04:55:45;94006.00;;;8.19;100.00
20077;BME280;12348;42.710;23.378;2023-04-01T04:58:14;94004.16;;;8.42;100.00
20077;BME280;12348;42.710;23.378;2023-04-01T05:00:42;93997.66;;;8.57;100.00
20077;BME280;12348;42.710;23.378;2023-04-01T05:03:10;93989.25;;;8.72;100.00
20077;BME280;12348;42.710;23.378;2023-04-01T05:05:38;93989.00;;;8.82;100.00
20077;BME280;12348;42.710;23.378;2023-04-01T05:08:05;93995.09;;;8.74;100.00
20077;BME280;12348;42.710;23.378;2023-04-01T05:10:32;93998.25;;;8.76;100.00
20077;BME280;12348;42.710;23.378;2023-04-01T05:12:59;93985.06;;;8.88;100.00
20077;BME280;12348;42.710;23.378;2023-04-01T05:15:27;93984.69;;;9.04;100.00
20077;BME280;12348;42.710;23.378;2023-04-01T05:17:54;93981.44;;;9.15;100.00
20077;BME280;12348;42.710;23.378;2023-04-01T05:20:20;93981.34;;;9.29;100.00
20077;BME280;12348;42.710;23.378;2023-04-01T05:22:47;93979.84;;;9.54;100.00
20077;BME280;12348;42.710;23.378;2023-04-01T05:25:14;93971.09;;;9.31;100.00
20077;BME280;12348;42.710;23.378;2023-04-01T05:27:41;93950.81;;;9.25;100.00
20077;BME280;12348;42.710;23.378;2023-04-01T05:30:08;93952.09;;;9.76;100.00
20077;BME280;12348;42.710;23.378;2023-04-01T05:32:37;93955.41;;;9.73;100.00
20077;BME280;12348;42.710;23.378;2023-04-01T05:35:04;93961.63;;;10.00;100.00
20077;BME280;12348;42.710;23.378;2023-04-01T05:37:33;93961.81;;;10.64;100.00
20077;BME280;12348;42.710;23.378;2023-04-01T05:40:00;93967.06;;;11.33;100.00
20077;BME280;12348;42.710;23.378;2023-04-01T05:42:27;93968.88;;;11.12;99.01
20077;BME280;12348;42.710;23.378;2023-04-01T05:44:53;93978.94;;;10.68;100.00
20077;BME280;12348;42.710;23.378;2023-04-01T05:47:21;93982.75;;;10.58;100.00
20077;BME280;12348;42.710;23.378;2023-04-01T05:49:51;93960.25;;;10.63;100.00
20077;BME280;12348;42.710;23.378;2023-04-01T05:52:18;93974.66;;;10.58;100.00
20077;BME280;12348;42.710;23.378;2023-04-01T05:54:44;93960.28;;;12.79;86.50
20077;BME280;12348;42.710;23.378;2023-04-01T05:57:11;93943.78;;;15.20;71.69
20077;BME280;12348;42.710;23.378;2023-04-01T05:59:38;93956.19;;;15.06;68.67
20077;BME280;12348;42.710;23.378;2023-04-01T06:02:05;93945.09;;;16.06;64.04
20077;BME280;12348;42.710;23.378;2023-04-01T06:04:36;93934.56;;;17.79;57.33
20077;BME280;12348;42.710;23.378;2023-04-01T06:07:11;93942.06;;;16.62;57.50
20077;BME280;12348;42.710;23.378;2023-04-01T06:09:38;93945.56;;;16.62;60.49
20077;BME280;12348;42.710;23.378;2023-04-01T06:12:31;93931.31;;;16.69;60.04
20077;BME280;12348;42.710;23.378;2023-04-01T06:15:12;93934.72;;;15.00;66.09
20077;BME280;12348;42.710;23.378;2023-04-01T06:17:52;93937.38;;;13.55;77.32
20077;BME280;12348;42.710;23.378;2023-04-01T06:20:34;93941.34;;;13.57;78.54
20077;BME280;12348;42.710;23.378;2023-04-01T06:23:17;93938.09;;;14.53;74.36
20077;BME280;12348;42.710;23.378;2023-04-01T06:25:54;93941.22;;;15.12;72.73
20077;BME280;12348;42.710;23.378;2023-04-01T06:28:46;93939.50;;;16.14;68.22
20077;BME280;12348;42.710;23.378;2023-04-01T06:31:35;93943.34;;;16.13;65.76
20077;BME280;12348;42.710;23.378;2023-04-01T06:34:19;93935.00;;;16.22;66.02
20077;BME280;12348;42.710;23.378;2023-04-01T06:37:03;93926.25;;;17.49;63.49
20077;BME280;12348;42.710;23.378;2023-04-01T06:39:46;93924.34;;;17.99;60.30
20077;BME280;12348;42.710;23.378;2023-04-01T06:42:38;93930.78;;;18.40;57.34
20077;BME280;12348;42.710;23.378;2023-04-01T06:45:20;93916.63;;;18.01;57.21
20077;BME280;12348;42.710;23.378;2023-04-01T06:48:05;93912.06;;;17.39;59.95
20077;BME280;12348;42.710;23.378;2023-04-01T06:50:40;93914.91;;;16.62;63.83
20077;BME280;12348;42.710;23.378;2023-04-01T06:53:16;93907.72;;;15.99;67.60
20077;BME280;12348;42.710;23.378;2023-04-01T06:55:50;93901.97;;;15.85;69.92
20077;BME280;12348;42.710;23.378;2023-04-01T06:58:21;93889.88;;;15.82;71.59
20077;BME280;12348;42.710;23.378;2023-04-01T07:00:50;93889.56;;;15.84;72.99
20077;BME280;12348;42.710;23.378;2023-04-01T07:03:21;93881.03;;;15.85;71.83
20077;BME280;12348;42.710;23.378;2023-04-01T07:05:50;93875.09;;;15.48;73.78
20077;BME280;12348;42.710;23.378;2023-04-01T07:08:23;93886.91;;;15.08;78.17
20077;BME280;12348;42.710;23.378;2023-04-01T07:10:55;93893.16;;;14.81;80.90
20077;BME280;12348;42.710;23.378;2023-04-01T07:13:26;93889.50;;;14.89;81.12
20077;BME280;12348;42.710;23.378;2023-04-01T07:15:59;93879.22;;;15.42;78.29
20077;BME280;12348;42.710;23.378;2023-04-01T07:18:34;93872.03;;;15.81;75.83
20077;BME280;12348;42.710;23.378;2023-04-01T07:21:03;93866.75;;;16.43;73.42
20077;BME280;12348;42.710;23.378;2023-04-01T07:23:36;93854.28;;;16.61;70.74
20077;BME280;12348;42.710;23.378;2023-04-01T07:26:14;93881.91;;;16.44;66.54
20077;BME280;12348;42.710;23.378;2023-04-01T07:28:42;93867.72;;;16.15;66.58
20077;BME280;12348;42.710;23.378;2023-04-01T07:31:18;93867.41;;;16.01;67.05
20077;BME280;12348;42.710;23.378;2023-04-01T07:33:53;93877.09;;;16.18;67.49
20077;BME280;12348;42.710;23.378;2023-04-01T07:36:25;93876.25;;;16.53;66.96
20077;BME280;12348;42.710;23.378;2023-04-01T07:38:59;93875.25;;;16.80;65.89
20077;BME280;12348;42.710;23.378;2023-04-01T07:41:34;93888.75;;;16.57;64.27
20077;BME280;12348;42.710;23.378;2023-04-01T07:44:09;93876.47;;;15.89;62.74
20077;BME280;12348;42.710;23.378;2023-04-01T07:46:59;93861.28;;;16.04;64.55
20077;BME280;12348;42.710;23.378;2023-04-01T07:49:32;93865.78;;;16.16;64.83
20077;BME280;12348;42.710;23.378;2023-04-01T07:52:08;93863.59;;;16.02;66.33
20077;BME280;12348;42.710;23.378;2023-04-01T07:54:43;93859.22;;;16.17;66.36
20077;BME280;12348;42.710;23.378;2023-04-01T07:57:19;93855.94;;;16.08;67.57
20077;BME280;12348;42.710;23.378;2023-04-01T07:59:56;93861.13;;;16.32;67.37
20077;BME280;12348;42.710;23.378;2023-04-01T08:02:38;93872.00;;;16.16;68.63
20077;BME280;12348;42.710;23.378;2023-04-01T08:05:17;93864.72;;;16.20;69.25
20077;BME280;12348;42.710;23.378;2023-04-01T08:07:51;93847.84;;;16.11;69.32
20077;BME280;12348;42.710;23.378;2023-04-01T08:10:24;93850.50;;;16.27;68.53
20077;BME280;12348;42.710;23.378;2023-04-01T08:13:05;93853.16;;;16.23;68.47
20077;BME280;12348;42.710;23.378;2023-04-01T08:15:39;93828.06;;;16.11;69.32
20077;BME280;12348;42.710;23.378;2023-04-01T08:18:15;93833.22;;;16.35;69.04
20077;BME280;12348;42.710;23.378;2023-04-01T08:20:51;93824.84;;;16.44;67.39
20077;BME280;12348;42.710;23.378;2023-04-01T08:23:28;93812.56;;;16.11;67.75
20077;BME280;12348;42.710;23.378;2023-04-01T08:26:03;93795.56;;;16.14;66.81
20077;BME280;12348;42.710;23.378;2023-04-01T08:28:37;93789.19;;;16.68;65.26
20077;BME280;12348;42.710;23.378;2023-04-01T08:31:09;93809.00;;;17.11;64.02
20077;BME280;12348;42.710;23.378;2023-04-01T08:33:37;93800.97;;;17.18;62.26
20077;BME280;12348;42.710;23.378;2023-04-01T08:36:08;93794.72;;;17.41;59.69
20077;BME280;12348;42.710;23.378;2023-04-01T08:38:40;93786.00;;;17.81;58.90
20077;BME280;12348;42.710;23.378;2023-04-01T08:41:37;93773.25;;;18.19;56.85
20077;BME280;12348;42.710;23.378;2023-04-01T08:44:23;93768.72;;;18.68;53.73
20077;BME280;12348;42.710;23.378;2023-04-01T08:47:18;93759.84;;;19.19;52.17
20077;BME280;12348;42.710;23.378;2023-04-01T08:50:24;93743.41;;;20.43;47.46
20077;BME280;12348;42.710;23.378;2023-04-01T08:53:00;93740.72;;;21.97;44.98
20077;BME280;12348;42.710;23.378;2023-04-01T08:55:51;93736.22;;;24.36;40.42
20077;BME280;12348;42.710;23.378;2023-04-01T08:58:43;93724.22;;;25.85;37.78
20077;BME280;12348;42.710;23.378;2023-04-01T09:01:26;93738.00;;;26.49;36.69
20077;BME280;12348;42.710;23.378;2023-04-01T09:04:17;93738.59;;;24.34;37.26
20077;BME280;12348;42.710;23.378;2023-04-01T09:06:58;93754.97;;;22.62;38.37
20077;BME280;12348;42.710;23.378;2023-04-01T09:09:54;93761.13;;;20.92;40.06
20077;BME280;12348;42.710;23.378;2023-04-01T09:12:39;93756.22;;;20.21;41.54
20077;BME280;12348;42.710;23.378;2023-04-01T09:15:34;93750.19;;;19.87;42.75
20077;BME280;12348;42.710;23.378;2023-04-01T09:18:24;93760.56;;;19.64;43.82
20077;BME280;12348;42.710;23.378;2023-04-01T09:21:12;93753.00;;;19.43;42.57
20077;BME280;12348;42.710;23.378;2023-04-01T09:23:48;93743.31;;;19.52;44.55
20077;BME280;12348;42.710;23.378;2023-04-01T09:32:42;93720.06;;;19.18;46.47
20077;BME280;12348;42.710;23.378;2023-04-01T09:35:36;93724.56;;;19.47;45.13
20077;BME280;12348;42.710;23.378;2023-04-01T09:38:20;93728.81;;;19.41;44.23
20077;BME280;12348;42.710;23.378;2023-04-01T09:40:54;93715.53;;;19.36;44.39
20077;BME280;12348;42.710;23.378;2023-04-01T09:43:30;93709.00;;;19.00;46.53
20077;BME280;12348;42.710;23.378;2023-04-01T09:46:10;93709.44;;;18.61;49.66
20077;BME280;12348;42.710;23.378;2023-04-01T09:48:56;93707.59;;;17.67;50.87
20077;BME280;12348;42.710;23.378;2023-04-01T09:51:37;93691.69;;;17.13;53.08
20077;BME280;12348;42.710;23.378;2023-04-01T09:54:17;93690.09;;;16.85;54.66
20077;BME280;12348;42.710;23.378;2023-04-01T09:57:22;93687.13;;;16.71;55.13
20077;BME280;12348;42.710;23.378;2023-04-01T10:03:28;93668.81;;;17.44;54.50
20077;BME280;12348;42.710;23.378;2023-04-01T10:06:27;93673.59;;;17.54;54.14
20077;BME280;12348;42.710;23.378;2023-04-01T10:09:29;93673.53;;;17.51;54.49
20077;BME280;12348;42.710;23.378;2023-04-01T10:12:31;93664.63;;;17.24;56.00
20077;BME280;12348;42.710;23.378;2023-04-01T10:15:36;93663.75;;;17.16;57.26
20077;BME280;12348;42.710;23.378;2023-04-01T10:18:38;93665.41;;;17.54;56.11
20077;BME280;12348;42.710;23.378;2023-04-01T10:21:26;93670.56;;;17.59;54.64
20077;BME280;12348;42.710;23.378;2023-04-01T10:24:27;93665.22;;;17.40;53.44
20077;BME280;12348;42.710;23.378;2023-04-01T10:39:46;93644.06;;;16.73;55.57
20077;BME280;12348;42.710;23.378;2023-04-01T10:49:05;93626.22;;;16.26;57.02
20077;BME280;12348;42.710;23.378;2023-04-01T10:54:51;93616.00;;;15.96;56.03
20077;BME280;12348;42.710;23.378;2023-04-01T10:57:44;93616.00;;;16.19;55.87
20077;BME280;12348;42.710;23.378;2023-04-01T11:12:58;93592.13;;;16.29;53.96
20077;BME280;12348;42.710;23.378;2023-04-01T11:15:55;93578.78;;;16.46;55.27
20077;BME280;12348;42.710;23.378;2023-04-01T11:21:59;93590.78;;;16.19;56.15
20077;BME280;12348;42.710;23.378;2023-04-01T11:27:44;93591.50;;;16.16;56.00
20077;BME280;12348;42.710;23.378;2023-04-01T11:30:25;93590.66;;;16.12;56.27
20077;BME280;12348;42.710;23.378;2023-04-01T11:33:00;93610.09;;;16.14;56.24
20077;BME280;12348;42.710;23.378;2023-04-01T11:35:46;93629.91;;;16.14;56.20
20077;BME280;12348;42.710;23.378;2023-04-01T11:38:26;93674.53;;;16.17;57.51
20077;BME280;12348;42.710;23.378;2023-04-01T11:40:58;93675.69;;;16.16;57.64
20077;BME280;12348;42.710;23.378;2023-04-01T11:43:32;93701.13;;;16.27;58.94
20077;BME280;12348;42.710;23.378;2023-04-01T11:46:07;93731.88;;;15.92;65.52
20077;BME280;12348;42.710;23.378;2023-04-01T11:48:53;93745.31;;;14.99;78.85
20077;BME280;12348;42.710;23.378;2023-04-01T11:52:01;93770.81;;;13.66;100.00
20077;BME280;12348;42.710;23.378;2023-04-01T11:54:42;93794.41;;;13.04;100.00
20077;BME280;12348;42.710;23.378;2023-04-01T11:57:26;93809.22;;;12.28;100.00
20077;BME280;12348;42.710;23.378;2023-04-01T12:03:35;93851.88;;;11.22;100.00
20077;BME280;12348;42.710;23.378;2023-04-01T12:06:11;93855.91;;;11.07;100.00
20077;BME280;12348;42.710;23.378;2023-04-01T12:08:47;93880.34;;;11.02;100.00
20077;BME280;12348;42.710;23.378;2023-04-01T12:11:24;93855.44;;;11.05;100.00
20077;BME280;12348;42.710;23.378;2023-04-01T12:14:01;93833.56;;;11.06;100.00
20077;BME280;12348;42.710;23.378;2023-04-01T12:16:41;93832.03;;;10.97;100.00
20077;BME280;12348;42.710;23.378;2023-04-01T12:19:17;93820.22;;;10.80;100.00
20077;BME280;12348;42.710;23.378;2023-04-01T12:21:55;93827.38;;;10.76;100.00
20077;BME280;12348;42.710;23.378;2023-04-01T12:24:45;93826.47;;;11.02;100.00
20077;BME280;12348;42.710;23.378;2023-04-01T12:27:23;93841.88;;;11.52;100.00
20077;BME280;12348;42.710;23.378;2023-04-01T12:33:04;93849.06;;;12.31;100.00
20077;BME280;12348;42.710;23.378;2023-04-01T12:35:45;93857.44;;;12.51;100.00
20077;BME280;12348;42.710;23.378;2023-04-01T12:38:21;93852.63;;;12.23;100.00
20077;BME280;12348;42.710;23.378;2023-04-01T12:44:04;93846.63;;;11.55;100.00
20077;BME280;12348;42.710;23.378;2023-04-01T12:46:46;93872.22;;;11.70;100.00
20077;BME280;12348;42.710;23.378;2023-04-01T12:49:42;93854.41;;;11.77;100.00
20077;BME280;12348;42.710;23.378;2023-04-01T12:52:19;93847.44;;;11.76;100.00
20077;BME280;12348;42.710;23.378;2023-04-01T12:55:18;93848.97;;;11.86;100.00
20077;BME280;12348;42.710;23.378;2023-04-01T12:57:58;93855.69;;;11.71;100.00
20077;BME280;12348;42.710;23.378;2023-04-01T13:00:57;93838.66;;;11.58;100.00
20077;BME280;12348;42.710;23.378;2023-04-01T13:03:41;93809.25;;;11.45;100.00
20077;BME280;12348;42.710;23.378;2023-04-01T13:06:36;93806.53;;;11.24;100.00
20077;BME280;12348;42.710;23.378;2023-04-01T13:09:20;93793.25;;;11.19;100.00
20077;BME280;12348;42.710;23.378;2023-04-01T13:12:02;93796.44;;;11.12;100.00
20077;BME280;12348;42.710;23.378;2023-04-01T13:14:58;93788.22;;;11.08;100.00
20077;BME280;12348;42.710;23.378;2023-04-01T13:17:37;93786.16;;;11.14;100.00
20077;BME280;12348;42.710;23.378;2023-04-01T13:20:13;93767.28;;;11.14;100.00
20077;BME280;12348;42.710;23.378;2023-04-01T13:22:51;93776.13;;;11.44;100.00
20077;BME280;12348;42.710;23.378;2023-04-01T13:25:32;93768.53;;;11.88;100.00
20077;BME280;12348;42.710;23.378;2023-04-01T13:28:09;93764.22;;;12.20;100.00
20077;BME280;12348;42.710;23.378;2023-04-01T13:30:42;93761.66;;;12.24;100.00
20077;BME280;12348;42.710;23.378;2023-04-01T13:33:16;93745.28;;;12.29;100.00
20077;BME280;12348;42.710;23.378;2023-04-01T13:35:55;93737.34;;;12.11;100.00
20077;BME280;12348;42.710;23.378;2023-04-01T13:38:51;93736.88;;;12.09;100.00
20077;BME280;12348;42.710;23.378;2023-04-01T13:41:38;93727.81;;;12.26;100.00
20077;BME280;12348;42.710;23.378;2023-04-01T13:44:12;93710.31;;;12.32;100.00
20077;BME280;12348;42.710;23.378;2023-04-01T13:47:12;93713.16;;;12.03;100.00
20077;BME280;12348;42.710;23.378;2023-04-01T13:53:13;93713.69;;;11.96;100.00
20077;BME280;12348;42.710;23.378;2023-04-01T13:55:49;93713.41;;;12.10;100.00
20077;BME280;12348;42.710;23.378;2023-04-01T13:58:38;93706.00;;;12.19;100.00
20077;BME280;12348;42.710;23.378;2023-04-01T14:01:13;93712.66;;;12.34;100.00
20077;BME280;12348;42.710;23.378;2023-04-01T14:03:59;93704.78;;;12.66;100.00
20077;BME280;12348;42.710;23.378;2023-04-01T14:06:38;93709.19;;;12.82;100.00
20077;BME280;12348;42.710;23.378;2023-04-01T14:09:43;93701.22;;;12.74;100.00
20077;BME280;12348;42.710;23.378;2023-04-01T14:12:22;93696.94;;;12.48;100.00
20077;BME280;12348;42.710;23.378;2023-04-01T14:15:07;93698.06;;;12.47;100.00
20077;BME280;12348;42.710;23.378;2023-04-01T14:17:46;93693.56;;;12.51;100.00
20077;BME280;12348;42.710;23.378;2023-04-01T14:20:29;93691.63;;;12.64;100.00
20077;BME280;12348;42.710;23.378;2023-04-01T14:23:13;93682.72;;;12.88;100.00
20077;BME280;12348;42.710;23.378;2023-04-01T14:26:00;93668.44;;;12.88;100.00
20077;BME280;12348;42.710;23.378;2023-04-01T14:28:38;93653.78;;;13.01;100.00
20077;BME280;12348;42.710;23.378;2023-04-01T14:31:23;93650.31;;;12.88;100.00
20077;BME280;12348;42.710;23.378;2023-04-01T14:34:00;93640.81;;;13.06;100.00
20077;BME280;12348;42.710;23.378;2023-04-01T14:36:53;93629.63;;;13.20;100.00
20077;BME280;12348;42.710;23.378;2023-04-01T14:39:39;93638.88;;;13.19;100.00
20077;BME280;12348;42.710;23.378;2023-04-01T14:42:21;93628.66;;;13.13;100.00
20077;BME280;12348;42.710;23.378;2023-04-01T14:45:05;93636.22;;;13.07;100.00
20077;BME280;12348;42.710;23.378;2023-04-01T14:47:48;93652.91;;;12.97;100.00